Time;durP1;ratioP1;P1;durP2;ratioP2;P2;SDS_P1;SDS_P2;PMS_P1;PMS_P2;Temp;Humidity;BMP_temperature;BMP_pressure;BME280_temperature;BME280_humidity;BME280_pressure;Samples;Min_cycle;Max_cycle;Signal;HPM_P1;HPM_P2
2021/06/14 00:00:50;;;;;;;11.98;4.20;;;;;;;8.68;73.55;91489.09;4941345;29;20035;-87
2021/06/14 00:03:17;;;;;;;7.75;4.10;;;;;;;8.56;74.03;91480.03;4940546;29;20122;-87
2021/06/14 00:05:47;;;;;;;8.18;5.05;;;;;;;8.54;73.86;91478.81;4972607;28;20043;-87
2021/06/14 00:08:15;;;;;;;10.48;4.50;;;;;;;8.53;74.70;91475.44;4956129;28;20034;-86
2021/06/14 00:10:42;;;;;;;7.88;4.45;;;;;;;8.53;74.60;91483.25;4939899;29;20027;-84
2021/06/14 00:13:08;;;;;;;12.35;4.68;;;;;;;8.38;74.69;91465.47;4956682;29;20109;-87
2021/06/14 00:15:35;;;;;;;6.90;4.57;;;;;;;8.48;74.82;91475.59;4924713;29;20090;-85
2021/06/14 00:18:01;;;;;;;8.40;4.30;;;;;;;8.40;74.81;91475.56;4940443;29;20057;-86
2021/06/14 00:20:28;;;;;;;13.55;5.88;;;;;;;8.26;75.04;91473.03;4940509;29;20074;-86
2021/06/14 00:22:55;;;;;;;11.18;4.20;;;;;;;8.27;74.52;91471.94;4923960;29;20038;-86
2021/06/14 00:25:24;;;;;;;9.77;4.60;;;;;;;8.14;74.79;91455.41;4956273;29;20031;-87
2021/06/14 00:27:53;;;;;;;9.00;4.00;;;;;;;8.22;74.45;91462.47;4924913;29;20031;-87
2021/06/14 00:30:43;;;;;;;7.75;4.22;;;;;;;8.00;75.00;91458.09;4924999;29;20066;-87
2021/06/14 00:33:11;;;;;;;9.07;4.60;;;;;;;8.08;75.19;91469.59;4949316;29;20462;-87
2021/06/14 00:35:38;;;;;;;7.35;4.72;;;;;;;8.08;75.72;91465.16;4933343;29;20027;-87
2021/06/14 00:38:06;;;;;;;8.63;4.38;;;;;;;8.33;74.71;91460.38;4983976;28;20030;-87
2021/06/14 00:40:32;;;;;;;8.05;4.45;;;;;;;7.99;75.02;91459.16;4958369;28;20452;-86
2021/06/14 00:43:03;;;;;;;12.18;4.32;;;;;;;7.87;75.84;91446.72;4944881;29;20397;-86
2021/06/14 00:45:31;;;;;;;11.75;4.25;;;;;;;7.64;76.65;91438.22;4939017;29;20030;-86
2021/06/14 00:48:00;;;;;;;8.60;4.55;;;;;;;7.66;76.83;91449.06;4954753;28;20512;-86
2021/06/14 00:50:55;;;;;;;8.07;5.13;;;;;;;7.76;76.57;91455.06;4922843;28;20031;-87
2021/06/14 00:53:29;;;;;;;8.07;4.90;;;;;;;7.80;76.20;91450.81;4954925;29;20137;-86
2021/06/14 00:55:57;;;;;;;7.90;4.40;;;;;;;7.87;75.57;91448.56;4939466;29;20642;-86
2021/06/14 00:58:22;;;;;;;6.22;4.20;;;;;;;7.92;75.63;91453.66;4922489;29;20066;-87
2021/06/14 01:00:50;;;;;;;10.00;4.38;;;;;;;7.71;76.22;91437.06;4938574;29;20110;-86
2021/06/14 01:03:16;;;;;;;9.30;4.05;;;;;;;7.73;76.60;91446.03;4954603;29;20024;-86
2021/06/14 01:05:50;;;;;;;10.82;4.60;;;;;;;7.76;76.04;91444.69;4944361;28;20023;-88
2021/06/14 01:08:15;;;;;;;8.07;4.33;;;;;;;7.76;76.08;91444.69;4959316;29;20015;-87
2021/06/14 01:10:42;;;;;;;10.07;4.65;;;;;;;7.58;76.44;91441.22;4959216;29;20042;-87
2021/06/14 01:13:28;;;;;;;12.80;4.43;;;;;;;7.55;76.44;91450.38;4976708;28;20031;-87
2021/06/14 01:16:18;;;;;;;11.68;4.47;;;;;;;7.42;77.25;91438.25;4978966;28;20027;-87
2021/06/14 01:19:03;;;;;;;6.88;4.22;;;;;;;7.50;76.71;91442.72;4977491;28;20090;-87
2021/06/14 01:21:31;;;;;;;7.63;4.07;;;;;;;7.49;76.71;91436.00;4977219;28;20098;-88
2021/06/14 01:24:21;;;;;;;11.23;4.70;;;;;;;7.37;77.49;91440.94;4977087;29;20011;-87
2021/06/14 01:27:01;;;;;;;10.85;4.82;;;;;;;7.47;79.32;91432.94;4972423;28;20027;-86
2021/06/14 01:29:28;;;;;;;8.13;4.60;;;;;;;7.50;77.59;91436.78;4922620;29;20027;-86
2021/06/14 01:31:55;;;;;;;7.63;4.38;;;;;;;7.54;76.31;91422.91;4923124;29;20567;-86
2021/06/14 01:34:26;;;;;;;10.00;4.68;;;;;;;7.42;76.95;91426.03;4939084;29;20109;-84
2021/06/14 01:36:56;;;;;;;5.95;4.63;;;;;;;7.41;76.55;91418.53;4947251;28;20113;-86
2021/06/14 01:39:34;;;;;;;8.90;4.88;;;;;;;7.20;77.62;91415.66;4942226;28;20091;-86
2021/06/14 01:42:09;;;;;;;8.45;4.18;;;;;;;7.49;76.93;91420.44;4937500;29;20090;-87
2021/06/14 01:44:36;;;;;;;7.40;3.58;;;;;;;7.55;76.44;91415.88;4940432;29;20023;-86
2021/06/14 01:47:03;;;;;;;12.75;4.68;;;;;;;7.30;77.15;91412.06;4940025;29;20027;-86
2021/06/14 01:49:30;;;;;;;7.35;4.15;;;;;;;7.39;77.36;91405.13;4956093;29;20508;-86
2021/06/14 01:54:29;;;;;;;7.85;4.00;;;;;;;7.42;76.63;91409.72;5056665;23;20502;-85
2021/06/14 01:56:55;;;;;;;8.80;3.78;;;;;;;7.58;76.29;91413.47;4983557;28;20540;-85
2021/06/14 01:59:29;;;;;;;8.57;4.10;;;;;;;7.46;76.60;91404.72;4967575;28;20036;-87
2021/06/14 02:01:56;;;;;;;8.32;5.00;;;;;;;7.05;77.65;91401.22;4983984;28;20040;-87
2021/06/14 02:04:22;;;;;;;8.70;4.13;;;;;;;7.31;76.29;91396.22;4982282;28;20117;-86
2021/06/14 02:06:50;;;;;;;8.48;4.00;;;;;;;7.52;75.68;91395.72;4966341;28;20054;-85
2021/06/14 02:09:19;;;;;;;6.82;4.22;;;;;;;7.28;77.49;91388.25;4967798;28;20070;-85
2021/06/14 02:11:46;;;;;;;8.82;4.28;;;;;;;7.25;77.12;91383.69;4967249;28;20065;-85
2021/06/14 02:14:24;;;;;;;8.18;4.53;;;;;;;7.04;77.89;91384.16;4950767;28;20018;-85
2021/06/14 02:17:00;;;;;;;7.45;4.05;;;;;;;7.08;77.90;91385.09;4969575;28;20094;-86
2021/06/14 02:19:31;;;;;;;6.35;4.10;;;;;;;7.14;77.62;91391.69;4984014;28;20114;-85
2021/06/14 02:22:10;;;;;;;5.82;3.97;;;;;;;7.18;77.24;91384.84;4983985;28;20033;-85
2021/06/14 02:24:41;;;;;;;7.30;4.05;;;;;;;7.03;77.36;91381.84;4969314;28;20019;-85
2021/06/14 02:27:10;;;;;;;10.18;4.50;;;;;;;6.91;77.79;91384.97;4968156;28;20056;-84
2021/06/14 02:29:36;;;;;;;7.32;4.15;;;;;;;7.09;77.61;91376.25;4951888;28;20030;-86
2021/06/14 02:32:03;;;;;;;7.93;4.25;;;;;;;6.95;77.77;91375.53;4966969;28;20399;-86
2021/06/14 02:34:38;;;;;;;12.57;4.05;;;;;;;6.87;77.74;91386.63;4951458;28;20022;-85
2021/06/14 02:37:06;;;;;;;8.43;4.43;;;;;;;6.87;78.31;91381.44;4949147;28;20022;-86
2021/06/14 02:39:36;;;;;;;7.13;4.35;;;;;;;6.67;78.80;91380.03;4980269;28;20497;-85
2021/06/14 02:42:03;;;;;;;11.98;4.70;;;;;;;6.73;78.50;91375.53;4986209;28;20026;-85
2021/06/14 02:44:30;;;;;;;6.65;3.92;;;;;;;6.68;78.18;91377.19;4999504;28;20026;-86
2021/06/14 02:47:01;;;;;;;9.23;4.43;;;;;;;6.84;77.88;91374.25;5000099;28;20033;-86
2021/06/14 02:49:28;;;;;;;7.95;4.53;;;;;;;6.79;77.72;91376.97;4999532;28;20026;-85
2021/06/14 02:51:55;;;;;;;8.60;4.55;;;;;;;6.73;77.95;91373.69;4983925;28;20027;-86
2021/06/14 02:54:40;;;;;;;10.25;4.45;;;;;;;6.64;78.29;91370.25;4984169;28;20026;-85
2021/06/14 02:57:16;;;;;;;;;;;;;;;6.76;78.12;91356.81;4985608;28;20049;-87
2021/06/14 02:59:45;;;;;;;9.57;4.22;;;;;;;6.77;78.76;91361.69;4999683;28;20403;-86
2021/06/14 03:02:13;;;;;;;7.95;4.05;;;;;;;6.66;79.14;91368.91;4999295;28;20322;-86
2021/06/14 03:04:40;;;;;;;8.82;4.63;;;;;;;6.57;79.45;91362.13;4984158;28;20027;-84
2021/06/14 03:07:07;;;;;;;10.95;4.45;;;;;;;6.55;79.19;91361.69;5000472;28;20022;-87
2021/06/14 03:09:34;;;;;;;6.85;4.22;;;;;;;6.46;79.42;91359.75;4999729;28;20018;-86
2021/06/14 03:12:00;;;;;;;8.52;4.03;;;;;;;6.45;79.42;91365.25;4984053;28;20022;-86
2021/06/14 03:14:26;;;;;;;7.65;4.68;;;;;;;6.40;79.24;91357.59;4969135;28;20023;-87
2021/06/14 03:16:52;;;;;;;6.82;4.47;;;;;;;6.26;79.27;91354.25;4988063;28;20030;-86
2021/06/14 03:19:37;;;;;;;10.50;4.50;;;;;;;6.26;79.10;91364.63;4987285;28;20029;-85
2021/06/14 03:22:09;;;;;;;;;;;;;;;6.43;78.42;91362.16;5004803;28;20022;-86
2021/06/14 03:24:43;;;;;;;6.40;3.70;;;;;;;6.35;78.89;91368.03;5003905;28;19920;-86
2021/06/14 03:27:11;;;;;;;5.55;3.90;;;;;;;6.44;79.04;91366.31;4988456;28;20030;-85
2021/06/14 03:29:38;;;;;;;6.97;4.30;;;;;;;6.26;79.00;91370.56;4987123;28;20022;-86
2021/06/14 03:32:06;;;;;;;9.88;4.18;;;;;;;6.14;79.76;91371.03;4986773;28;20030;-87
2021/06/14 03:34:33;;;;;;;9.38;4.55;;;;;;;6.13;79.67;91366.16;5003780;28;20022;-86
2021/06/14 03:37:00;;;;;;;7.60;4.57;;;;;;;6.18;79.46;91368.63;4995603;28;20037;-87
2021/06/14 03:39:27;;;;;;;6.40;4.00;;;;;;;6.17;79.17;91373.03;5020412;28;20030;-86
2021/06/14 03:41:53;;;;;;;8.52;3.65;;;;;;;6.18;78.79;91361.66;4988300;28;20075;-85
2021/06/14 03:44:28;;;;;;;9.35;4.78;;;;;;;6.17;79.00;91370.44;4968573;28;20034;-85
2021/06/14 03:46:59;;;;;;;5.95;3.92;;;;;;;6.18;78.79;91369.41;4970498;28;20022;-85
2021/06/14 03:49:28;;;;;;;9.77;4.40;;;;;;;6.33;78.97;91362.41;4983919;28;20026;-86
2021/06/14 03:52:02;;;;;;;7.72;4.40;;;;;;;6.24;79.34;91364.88;4969557;28;20022;-85
2021/06/14 03:54:35;;;;;;;9.15;4.25;;;;;;;6.28;79.28;91370.25;4969006;28;20030;-85
2021/06/14 03:57:07;;;;;;;6.95;3.67;;;;;;;6.29;78.87;91374.38;4968495;28;20030;-85
2021/06/14 03:59:36;;;;;;;17.55;4.50;;;;;;;6.35;78.85;91362.84;5001326;28;20022;-86
2021/06/14 04:02:07;;;;;;;8.82;4.10;;;;;;;6.34;78.36;91371.69;4967694;28;20071;-85
2021/06/14 04:07:05;;;;;;;5.90;4.00;;;;;;;6.51;78.38;91365.91;5001028;28;20388;-85
2021/06/14 04:09:34;;;;;;;7.88;4.00;;;;;;;6.50;78.27;91364.34;4966980;28;20026;-85
2021/06/14 04:12:01;;;;;;;8.95;4.00;;;;;;;6.47;78.87;91363.13;4966898;28;20395;-86
2021/06/14 04:14:28;;;;;;;8.73;3.72;;;;;;;6.70;78.02;91362.09;4967148;28;20023;-85
2021/06/14 04:16:55;;;;;;;8.23;4.00;;;;;;;6.77;77.79;91359.09;4983063;28;20480;-85
2021/06/14 04:19:22;;;;;;;8.02;4.10;;;;;;;6.72;78.12;91358.47;4967153;28;20053;-85
2021/06/14 04:21:49;;;;;;;7.53;3.83;;;;;;;6.77;78.21;91358.34;4969175;28;20037;-85
2021/06/14 04:24:16;;;;;;;7.88;4.63;;;;;;;6.93;77.65;91356.94;4984336;28;20118;-85
2021/06/14 04:26:41;;;;;;;8.45;4.40;;;;;;;6.93;77.81;91362.13;4983361;28;20022;-85
2021/06/14 04:29:07;;;;;;;8.45;4.28;;;;;;;6.97;77.98;91352.72;4984627;28;20049;-87
2021/06/14 04:31:45;;;;;;;8.30;4.38;;;;;;;7.07;79.77;91352.47;4984398;28;20496;-86
2021/06/14 04:34:16;;;;;;;6.72;3.60;;;;;;;7.13;78.07;91353.09;4969079;28;20031;-86
2021/06/14 04:36:45;;;;;;;9.50;4.15;;;;;;;7.27;77.42;91350.44;4972138;28;20041;-86
2021/06/14 04:39:11;;;;;;;12.82;4.70;;;;;;;7.37;77.71;91350.97;5001843;28;20054;-85
2021/06/14 04:41:38;;;;;;;7.25;3.60;;;;;;;7.48;77.27;91350.72;5001291;28;20030;-85
2021/06/14 04:44:05;;;;;;;12.90;3.95;;;;;;;7.55;77.02;91356.22;4952304;28;20499;-87
2021/06/14 04:46:32;;;;;;;6.47;3.92;;;;;;;7.80;76.52;91355.56;4952136;28;20042;-86
2021/06/14 04:49:02;;;;;;;9.07;3.90;;;;;;;7.73;77.25;91351.88;4985112;28;20034;-86
2021/06/14 04:51:31;;;;;;;7.30;4.15;;;;;;;7.73;77.78;91351.88;4984321;28;20058;-86
2021/06/14 04:53:58;;;;;;;9.60;4.53;;;;;;;7.82;78.35;91342.31;4952506;28;20086;-85
2021/06/14 04:56:30;;;;;;;11.35;4.43;;;;;;;7.87;77.91;91352.56;4968460;28;20094;-86
2021/06/14 04:59:01;;;;;;;6.22;3.47;;;;;;;7.99;77.82;91344.22;4985926;28;20026;-85
2021/06/14 05:01:29;;;;;;;7.68;3.70;;;;;;;8.06;76.93;91344.53;4985732;28;20022;-86
2021/06/14 05:03:56;;;;;;;8.38;3.80;;;;;;;8.16;76.51;91346.81;4953599;28;20030;-85
2021/06/14 05:06:26;;;;;;;7.20;4.05;;;;;;;8.27;77.24;91349.91;4968785;28;20030;-86
2021/06/14 05:08:58;;;;;;;7.25;4.13;;;;;;;8.48;77.79;91348.31;4952783;28;20033;-83
2021/06/14 05:11:30;;;;;;;8.48;3.72;;;;;;;8.64;77.06;91348.63;5001731;28;20141;-85
2021/06/14 05:13:59;;;;;;;7.30;3.97;;;;;;;8.75;78.09;91355.03;4952699;28;20480;-85
2021/06/14 05:16:33;;;;;;;8.38;3.65;;;;;;;8.84;77.82;91352.47;5001598;28;20113;-87
2021/06/14 05:19:10;;;;;;;9.90;4.03;;;;;;;8.92;78.01;91349.09;4969836;28;20030;-85
2021/06/14 05:21:37;;;;;;;12.80;4.35;;;;;;;9.15;78.67;91338.50;4983651;28;20026;-87
2021/06/14 05:24:11;;;;;;;7.15;4.10;;;;;;;9.29;75.95;91341.69;4968441;28;20027;-86
2021/06/14 05:26:48;;;;;;;12.93;3.65;;;;;;;9.46;76.35;91343.50;4968430;28;20036;-85
2021/06/14 05:29:15;;;;;;;8.15;4.05;;;;;;;9.58;79.30;91339.19;4982784;28;20022;-86
2021/06/14 05:31:40;;;;;;;9.02;4.10;;;;;;;9.69;76.38;91339.63;4951245;28;20059;-86
2021/06/14 05:34:07;;;;;;;8.52;3.90;;;;;;;9.82;76.15;91332.66;4983370;28;20018;-87
2021/06/14 05:36:34;;;;;;;10.73;3.97;;;;;;;10.08;72.69;91334.41;4986360;28;20026;-85
2021/06/14 05:39:07;;;;;;;8.75;4.05;;;;;;;10.30;70.63;91334.16;4982273;28;20126;-86
2021/06/14 05:41:34;;;;;;;7.82;3.38;;;;;;;10.53;67.62;91337.25;4981366;28;20034;-85
2021/06/14 05:44:01;;;;;;;6.10;3.60;;;;;;;10.67;68.38;91335.16;4999044;28;20038;-85
2021/06/14 05:46:29;;;;;;;6.68;3.55;;;;;;;10.85;70.21;91341.03;4965109;28;20080;-85
2021/06/14 05:48:55;;;;;;;10.23;3.60;;;;;;;11.01;68.75;91341.94;5013945;28;20038;-88
2021/06/14 05:51:24;;;;;;;8.00;3.47;;;;;;;11.20;68.52;91335.50;4980507;28;20018;-87
2021/06/14 05:53:52;;;;;;;6.28;3.10;;;;;;;11.42;64.50;91342.97;4994469;28;20030;-86
2021/06/14 05:56:32;;;;;;;7.63;3.50;;;;;;;11.54;71.62;91344.09;4955706;28;20532;-86
2021/06/14 05:58:58;;;;;;;8.20;4.53;;;;;;;11.58;73.96;91344.97;4975019;28;20137;-86
2021/06/14 06:01:25;;;;;;;7.35;3.22;;;;;;;11.81;63.52;91340.13;4941935;28;20029;-86
2021/06/14 06:03:53;;;;;;;7.20;3.42;;;;;;;12.02;70.12;91340.81;4958000;28;20106;-86
2021/06/14 06:06:20;;;;;;;7.78;3.78;;;;;;;12.05;68.20;91342.00;4957960;28;20106;-88
2021/06/14 06:08:49;;;;;;;4.93;2.75;;;;;;;12.22;63.19;91339.19;4943953;28;20092;-86
2021/06/14 06:11:18;;;;;;;11.93;3.03;;;;;;;12.53;61.67;91336.00;4941929;28;20018;-87
2021/06/14 06:13:49;;;;;;;10.65;3.08;;;;;;;12.63;60.36;91334.81;4974824;28;20026;-86
2021/06/14 06:16:19;;;;;;;5.38;2.75;;;;;;;12.73;62.35;91344.06;4957845;28;20177;-86
2021/06/14 06:18:46;;;;;;;8.15;2.90;;;;;;;12.88;59.81;91338.88;4957808;28;20444;-86
2021/06/14 06:21:12;;;;;;;8.00;3.15;;;;;;;13.08;57.55;91333.81;4956802;28;20077;-86
2021/06/14 06:23:44;;;;;;;8.82;3.05;;;;;;;13.18;57.41;91327.34;4957501;28;20039;-88
2021/06/14 06:26:13;;;;;;;5.55;2.67;;;;;;;13.27;55.39;91335.84;4942018;28;20031;-85
2021/06/14 06:28:39;;;;;;;6.97;2.80;;;;;;;13.45;54.55;91331.84;4957423;28;20493;-86
2021/06/14 06:31:05;;;;;;;6.80;2.92;;;;;;;13.62;55.70;91333.41;4973268;28;20109;-86
2021/06/14 06:33:36;;;;;;;5.93;2.75;;;;;;;13.61;54.70;91327.41;4956894;28;20058;-86
2021/06/14 06:36:04;;;;;;;8.82;2.85;;;;;;;13.68;54.69;91329.44;4961725;28;20026;-86
2021/06/14 06:38:31;;;;;;;8.43;2.63;;;;;;;13.82;55.23;91340.28;4976964;28;20504;-87
2021/06/14 06:41:01;;;;;;;12.45;3.13;;;;;;;13.80;54.28;91331.22;5008802;28;20538;-86
2021/06/14 06:43:27;;;;;;;6.75;2.90;;;;;;;13.95;54.58;91334.94;4984753;28;20028;-86
2021/06/14 06:45:55;;;;;;;9.82;2.95;;;;;;;14.09;53.68;91327.41;4976252;28;20019;-86
2021/06/14 06:48:29;;;;;;;6.85;2.72;;;;;;;14.04;52.93;91325.06;4991144;28;20432;-86
2021/06/14 06:50:56;;;;;;;7.93;3.03;;;;;;;14.05;53.75;91327.34;4994135;28;20030;-86
2021/06/14 06:53:24;;;;;;;7.57;2.92;;;;;;;14.14;53.98;91319.31;4978041;28;20636;-86
2021/06/14 06:55:54;;;;;;;6.65;2.80;;;;;;;14.21;54.15;91322.09;4978789;28;20065;-87
2021/06/14 06:58:23;;;;;;;5.80;3.10;;;;;;;14.39;55.77;91321.75;4995296;28;20030;-87
2021/06/14 07:00:52;;;;;;;9.38;2.97;;;;;;;14.50;53.01;91317.53;4995022;28;20042;-86
2021/06/14 07:03:19;;;;;;;8.48;2.75;;;;;;;14.48;51.85;91323.06;5007919;28;20025;-89
2021/06/14 07:05:46;;;;;;;7.63;2.88;;;;;;;14.64;53.58;91330.94;5004438;28;20069;-88
2021/06/14 07:08:12;;;;;;;9.85;2.95;;;;;;;14.69;53.14;91325.41;5013081;28;20034;-86
2021/06/14 07:10:38;;;;;;;31.30;3.30;;;;;;;14.82;51.11;91328.69;5010453;28;20018;-86
2021/06/14 07:13:06;;;;;;;10.60;3.22;;;;;;;14.88;52.28;91323.94;4985089;28;20120;-87
2021/06/14 07:15:36;;;;;;;8.82;3.50;;;;;;;14.85;52.38;91316.75;4994623;28;20031;-86
2021/06/14 07:18:06;;;;;;;7.22;2.70;;;;;;;15.04;51.14;91322.75;4962955;28;20113;-87
2021/06/14 07:20:36;;;;;;;8.00;2.78;;;;;;;15.17;54.10;91328.66;4978466;28;20392;-86
2021/06/14 07:23:03;;;;;;;7.53;3.25;;;;;;;15.26;49.03;91331.84;4978354;28;20058;-86
2021/06/14 07:25:31;;;;;;;5.55;3.05;;;;;;;15.26;51.12;91320.56;4994630;28;20031;-86
2021/06/14 07:28:02;;;;;;;8.00;3.10;;;;;;;15.29;51.08;91319.88;4983996;28;20104;-87
2021/06/14 07:30:28;;;;;;;7.22;2.90;;;;;;;15.42;51.70;91325.75;4977651;28;20029;-87
2021/06/14 07:32:54;;;;;;;9.85;3.25;;;;;;;15.52;49.69;91325.19;4976814;28;20120;-86
2021/06/14 07:35:20;;;;;;;7.38;3.10;;;;;;;15.55;49.88;91327.13;4977409;28;20022;-87
2021/06/14 07:37:46;;;;;;;9.27;3.10;;;;;;;15.58;49.65;91326.41;4993167;28;20116;-86
2021/06/14 07:40:13;;;;;;;6.53;3.05;;;;;;;15.67;50.84;91326.97;4961246;28;20058;-87
2021/06/14 07:42:40;;;;;;;5.45;2.83;;;;;;;15.69;50.40;91331.91;4984710;28;20492;-87
2021/06/14 07:45:07;;;;;;;8.93;3.17;;;;;;;15.88;48.07;91331.09;4993908;28;20034;-87
2021/06/14 07:47:34;;;;;;;8.43;3.15;;;;;;;15.84;49.10;91330.28;4961048;28;20105;-87
2021/06/14 07:50:01;;;;;;;8.75;3.03;;;;;;;15.98;50.01;91333.13;4976942;28;20073;-87
2021/06/14 07:52:27;;;;;;;7.90;2.85;;;;;;;16.09;48.66;91334.06;4960342;28;20018;-87
2021/06/14 07:54:55;;;;;;;9.50;3.17;;;;;;;16.11;48.76;91329.19;5085049;23;20101;-83
2021/06/14 07:57:21;;;;;;;6.40;3.00;;;;;;;16.25;46.31;91326.81;5016540;28;20030;-83
2021/06/14 07:59:48;;;;;;;9.55;2.97;;;;;;;16.25;47.25;91326.81;5034456;28;20081;-84
2021/06/14 08:02:13;;;;;;;7.45;2.88;;;;;;;16.34;47.29;91320.56;5011772;28;20026;-85
2021/06/14 08:04:39;;;;;;;5.15;2.80;;;;;;;16.39;48.95;91320.25;5003003;28;20053;-84
2021/06/14 08:07:05;;;;;;;6.57;2.88;;;;;;;16.59;47.11;91321.66;5019351;28;20057;-86
2021/06/14 08:09:32;;;;;;;7.97;3.40;;;;;;;16.72;48.22;91324.88;4987094;28;20029;-85
2021/06/14 08:12:01;;;;;;;10.68;2.97;;;;;;;16.84;47.81;91316.00;5003634;28;20025;-84
2021/06/14 08:14:27;;;;;;;6.55;2.80;;;;;;;16.85;46.31;91312.25;5002941;28;20026;-85
2021/06/14 08:16:52;;;;;;;6.00;2.88;;;;;;;17.03;47.87;91313.28;5003331;28;20053;-85
2021/06/14 08:27:06;;;;;;;7.25;3.00;;;;;;;17.39;46.48;91305.78;5015547;28;20040;-85
2021/06/14 08:29:34;;;;;;;9.48;2.95;;;;;;;17.42;44.54;91302.41;4999681;28;20030;-84
2021/06/14 08:31:59;;;;;;;5.95;2.80;;;;;;;17.66;46.25;91304.53;4998267;28;20030;-85
2021/06/14 08:34:24;;;;;;;5.35;2.70;;;;;;;17.69;47.13;91303.06;5016327;28;20033;-84
2021/06/14 08:36:50;;;;;;;6.60;3.05;;;;;;;17.72;44.52;91315.53;5013805;28;20026;-84
2021/06/14 08:39:16;;;;;;;4.90;2.63;;;;;;;17.58;46.18;91297.69;4982089;28;20029;-84
2021/06/14 08:41:45;;;;;;;7.43;2.90;;;;;;;17.87;47.23;91295.34;4994586;28;20487;-85
2021/06/14 08:44:11;;;;;;;7.28;2.88;;;;;;;17.91;44.37;91299.56;4978208;28;20448;-85
2021/06/14 08:46:38;;;;;;;5.10;2.83;;;;;;;17.96;44.20;91297.72;4961988;28;20615;-85
2021/06/14 08:49:07;;;;;;;8.88;2.70;;;;;;;17.93;42.12;91293.91;4984540;28;20030;-83
2021/06/14 08:51:35;;;;;;;5.45;2.60;;;;;;;17.97;42.18;91299.22;4999635;28;20018;-85
2021/06/14 08:54:02;;;;;;;6.20;2.85;;;;;;;18.06;43.25;91292.53;4998031;28;20018;-85
2021/06/14 08:56:29;;;;;;;7.85;3.25;;;;;;;18.26;44.65;91300.19;4981551;28;20619;-85
2021/06/14 08:58:55;;;;;;;6.80;2.60;;;;;;;18.45;43.13;91293.94;4983745;28;20033;-86
2021/06/14 09:01:21;;;;;;;5.63;2.75;;;;;;;18.45;42.82;91297.34;4995611;28;20026;-86
2021/06/14 09:03:46;;;;;;;6.45;2.97;;;;;;;18.51;42.98;91297.75;4990871;28;20081;-86
2021/06/14 09:06:12;;;;;;;5.72;2.78;;;;;;;18.55;43.60;91294.00;4989673;28;20031;-86
2021/06/14 09:08:37;;;;;;;5.15;2.90;;;;;;;18.62;41.83;91286.16;4996237;28;20030;-85
2021/06/14 09:11:03;;;;;;;6.20;2.40;;;;;;;18.75;44.11;91283.22;5000435;28;20033;-86
2021/06/14 09:13:32;;;;;;;5.30;3.10;;;;;;;18.79;41.35;91284.75;5011184;28;20030;-86
2021/06/14 09:16:12;;;;;;;5.15;2.55;;;;;;;18.89;38.74;91285.94;5014060;28;20034;-85
2021/06/14 09:18:38;;;;;;;5.63;2.50;;;;;;;18.92;39.38;91284.44;5013950;28;20018;-84
2021/06/14 09:21:12;;;;;;;4.55;2.28;;;;;;;18.92;39.01;91277.28;5001564;28;20052;-85
2021/06/14 09:23:39;;;;;;;5.95;2.50;;;;;;;19.07;42.07;91278.84;5002258;28;20057;-86
2021/06/14 09:26:04;;;;;;;5.88;2.90;;;;;;;19.08;39.68;91280.38;5002309;28;20037;-86
2021/06/14 09:28:30;;;;;;;6.28;2.45;;;;;;;19.25;39.20;91288.72;5001739;28;20021;-85
2021/06/14 09:30:55;;;;;;;6.65;2.33;;;;;;;19.25;37.78;91288.72;5001775;28;20036;-86
2021/06/14 09:33:25;;;;;;;8.80;2.33;;;;;;;19.43;37.05;91284.25;4999093;28;20033;-84
2021/06/14 09:35:52;;;;;;;5.55;2.13;;;;;;;19.40;35.69;91285.03;4991973;28;20547;-84
2021/06/14 09:38:20;;;;;;;3.97;2.03;;;;;;;19.42;36.33;91287.28;5000541;28;20030;-84
2021/06/14 09:40:53;;;;;;;6.05;2.08;;;;;;;19.62;36.39;91296.41;5001164;28;20053;-84
2021/06/14 09:43:31;;;;;;;5.77;2.60;;;;;;;19.75;37.45;91299.47;4985212;28;20053;-85
2021/06/14 09:45:58;;;;;;;6.28;2.13;;;;;;;19.87;36.85;91290.44;4991692;28;20038;-83
2021/06/14 09:48:27;;;;;;;5.68;2.25;;;;;;;19.85;37.38;91282.88;4990670;28;20034;-84
2021/06/14 09:50:55;;;;;;;3.80;2.05;;;;;;;20.03;37.21;91293.47;4979910;28;20668;-85
2021/06/14 09:53:24;;;;;;;3.63;2.25;;;;;;;20.07;35.28;91288.97;4992287;28;20030;-83
2021/06/14 09:55:52;;;;;;;7.50;2.40;;;;;;;20.11;36.57;91281.78;4975249;28;20034;-84
2021/06/14 09:58:21;;;;;;;4.28;2.30;;;;;;;20.28;35.91;91282.88;4997715;28;20380;-85
2021/06/14 10:01:02;;;;;;;6.97;2.08;;;;;;;20.34;35.97;91289.31;4993688;28;20080;-84
2021/06/14 10:03:30;;;;;;;5.05;1.98;;;;;;;20.38;36.05;91290.06;4995671;28;20030;-85
2021/06/14 10:05:57;;;;;;;5.32;2.20;;;;;;;20.47;34.13;91290.47;4993113;28;20068;-85
2021/06/14 10:08:30;;;;;;;4.13;1.90;;;;;;;20.61;34.58;91278.38;4989888;28;20025;-85
2021/06/14 10:11:12;;;;;;;4.38;2.00;;;;;;;20.75;36.80;91294.25;5009629;28;20406;-85
2021/06/14 10:13:44;;;;;;;5.13;2.28;;;;;;;20.85;34.73;91287.38;5009720;28;20029;-84
2021/06/14 10:16:13;;;;;;;3.63;2.22;;;;;;;20.90;35.20;91281.72;4993258;28;20022;-85
2021/06/14 10:18:46;;;;;;;4.38;2.42;;;;;;;21.04;36.32;91279.03;4993497;28;20423;-83
2021/06/14 10:21:32;;;;;;;4.03;2.03;;;;;;;21.03;35.89;91268.81;4993082;28;20032;-85
2021/06/14 10:24:09;;;;;;;4.78;2.30;;;;;;;21.03;37.10;91268.81;4986061;28;20026;-84
2021/06/14 10:26:39;;;;;;;13.75;2.60;;;;;;;21.15;34.92;91276.34;4994325;28;20104;-86
2021/06/14 10:29:12;;;;;;;5.57;2.15;;;;;;;21.17;36.15;91276.72;4977517;28;20041;-86
2021/06/14 10:31:39;;;;;;;9.73;2.63;;;;;;;21.11;36.61;91268.41;4962278;28;20026;-84
2021/06/14 10:34:06;;;;;;;6.13;2.33;;;;;;;21.06;37.14;91268.03;5014098;28;20027;-86
2021/06/14 10:36:33;;;;;;;5.70;2.33;;;;;;;21.21;37.51;91272.91;4996034;28;20488;-86
2021/06/14 10:39:02;;;;;;;5.43;2.10;;;;;;;21.09;35.54;91269.91;4994959;28;20496;-86
2021/06/14 10:41:31;;;;;;;5.90;2.10;;;;;;;21.27;38.72;91275.91;4978699;28;20022;-85
2021/06/14 10:44:00;;;;;;;7.45;2.30;;;;;;;21.42;36.72;91272.09;4972499;28;20030;-86
2021/06/14 10:46:31;;;;;;;7.40;2.40;;;;;;;21.42;35.21;91272.09;5010990;28;20034;-86
2021/06/14 10:49:01;;;;;;;6.00;2.10;;;;;;;21.33;34.78;91269.06;5010820;28;20030;-86
2021/06/14 10:51:28;;;;;;;8.27;2.22;;;;;;;21.41;36.03;91270.59;4977758;28;20041;-85
2021/06/14 10:54:07;;;;;;;3.78;2.10;;;;;;;21.40;33.92;91277.03;4992902;28;20062;-86
2021/06/14 10:56:33;;;;;;;3.92;1.83;;;;;;;21.59;33.52;91275.03;4993254;28;20109;-86
2021/06/14 10:59:00;;;;;;;3.05;1.50;;;;;;;21.47;30.57;91271.69;5001699;28;20026;-86
2021/06/14 11:01:43;;;;;;;2.25;1.20;;;;;;;21.73;31.89;91269.66;4996269;28;20102;-86
2021/06/14 11:04:09;;;;;;;3.15;1.50;;;;;;;21.86;30.86;91259.34;4996538;28;20026;-85
2021/06/14 11:06:48;;;;;;;3.35;1.60;;;;;;;21.91;32.78;91241.13;4996602;28;20336;-86
2021/06/14 11:09:13;;;;;;;4.07;1.20;;;;;;;22.18;30.85;91249.28;4998904;28;20476;-86
2021/06/14 11:11:43;;;;;;;2.03;0.90;;;;;;;22.21;27.91;91250.41;4981733;28;20033;-86
2021/06/14 11:14:08;;;;;;;3.58;0.90;;;;;;;22.30;29.13;91253.38;4998180;28;20022;-86
2021/06/14 11:16:38;;;;;;;3.50;1.30;;;;;;;22.32;29.71;91240.44;5000340;28;20029;-86
2021/06/14 11:19:04;;;;;;;4.28;1.70;;;;;;;22.18;28.74;91245.88;5018649;28;20026;-83
2021/06/14 11:21:30;;;;;;;4.47;1.33;;;;;;;22.40;29.24;91241.91;5019963;28;20037;-87
2021/06/14 11:24:04;;;;;;;3.70;1.38;;;;;;;22.43;30.12;91241.09;5007712;28;20030;-86
2021/06/14 11:26:29;;;;;;;;;;;;;;;22.56;29.15;91237.97;5013657;28;20026;-86
2021/06/14 11:28:56;;;;;;;3.22;1.40;;;;;;;22.49;30.53;91238.78;5030392;28;19917;-86
2021/06/14 11:31:25;;;;;;;2.55;1.38;;;;;;;22.55;28.96;91241.78;5012993;28;20026;-85
2021/06/14 11:33:53;;;;;;;4.75;1.20;;;;;;;22.50;27.89;91240.28;5013477;28;20399;-86
2021/06/14 11:36:28;;;;;;;1.92;1.00;;;;;;;22.58;27.33;91235.66;4976158;28;20484;-86
2021/06/14 11:38:55;;;;;;;5.47;1.50;;;;;;;22.64;29.78;91223.47;4993898;28;20065;-85
2021/06/14 11:41:32;;;;;;;2.90;1.13;;;;;;;22.74;30.70;91217.31;4982481;28;20053;-85
2021/06/14 11:44:20;;;;;;;4.05;1.35;;;;;;;22.94;31.71;91224.72;4969330;28;20093;-86
2021/06/14 11:46:51;;;;;;;3.50;1.15;;;;;;;22.84;29.61;91219.09;4976516;28;20054;-86
2021/06/14 11:49:18;;;;;;;2.63;1.20;;;;;;;23.13;30.75;91211.56;4977340;28;20038;-85
2021/06/14 11:51:45;;;;;;;4.45;1.58;;;;;;;23.13;29.70;91206.25;4992617;28;20030;-85
2021/06/14 11:54:14;;;;;;;6.15;1.60;;;;;;;23.38;31.66;91213.16;4960358;28;20428;-86
2021/06/14 11:56:40;;;;;;;2.30;1.30;;;;;;;23.28;27.86;91200.75;4976227;28;20029;-85
2021/06/14 11:59:10;;;;;;;3.22;1.45;;;;;;;23.32;27.67;91218.19;5007317;28;20061;-84